sensor_id;sensor_type;location;lat;lon;timestamp;P1;durP1;ratioP1;P2;durP2;ratioP2
41480;SDS011;27217;51.220;5.308;2024-01-10T00:01:43;19.87;;;5.17;;
41480;SDS011;27217;51.220;5.308;2024-01-10T00:04:09;13.07;;;5.50;;
41480;SDS011;27217;51.220;5.308;2024-01-10T00:06:35;22.73;;;5.90;;
41480;SDS011;27217;51.220;5.308;2024-01-10T00:09:01;14.27;;;6.27;;
41480;SDS011;27217;51.220;5.308;2024-01-10T00:11:27;14.30;;;5.13;;
41480;SDS011;27217;51.220;5.308;2024-01-10T00:13:53;15.93;;;5.70;;
41480;SDS011;27217;51.220;5.308;2024-01-10T00:16:24;11.40;;;5.28;;
41480;SDS011;27217;51.220;5.308;2024-01-10T00:18:51;10.70;;;4.53;;
41480;SDS011;27217;51.220;5.308;2024-01-10T00:21:17;14.50;;;5.13;;
41480;SDS011;27217;51.220;5.308;2024-01-10T00:23:43;14.33;;;5.53;;
41480;SDS011;27217;51.220;5.308;2024-01-10T00:26:11;14.73;;;5.63;;
41480;SDS011;27217;51.220;5.308;2024-01-10T00:31:13;12.57;;;5.53;;
41480;SDS011;27217;51.220;5.308;2024-01-10T00:33:39;15.83;;;5.43;;
41480;SDS011;27217;51.220;5.308;2024-01-10T00:36:05;14.93;;;5.63;;
41480;SDS011;27217;51.220;5.308;2024-01-10T00:38:32;13.93;;;6.20;;
41480;SDS011;27217;51.220;5.308;2024-01-10T00:40:58;15.50;;;5.33;;
41480;SDS011;27217;51.220;5.308;2024-01-10T00:43:24;14.27;;;6.10;;
41480;SDS011;27217;51.220;5.308;2024-01-10T00:45:49;17.93;;;6.50;;
41480;SDS011;27217;51.220;5.308;2024-01-10T00:48:15;17.97;;;5.97;;
41480;SDS011;27217;51.220;5.308;2024-01-10T00:50:42;16.67;;;6.03;;
41480;SDS011;27217;51.220;5.308;2024-01-10T00:53:11;14.50;;;5.93;;
41480;SDS011;27217;51.220;5.308;2024-01-10T00:55:38;13.83;;;5.50;;
41480;SDS011;27217;51.220;5.308;2024-01-10T00:58:04;16.27;;;6.40;;
41480;SDS011;27217;51.220;5.308;2024-01-10T01:00:29;14.87;;;5.73;;
41480;SDS011;27217;51.220;5.308;2024-01-10T01:02:55;14.20;;;5.60;;
41480;SDS011;27217;51.220;5.308;2024-01-10T01:05:21;19.13;;;6.43;;
41480;SDS011;27217;51.220;5.308;2024-01-10T01:07:46;13.17;;;4.90;;
41480;SDS011;27217;51.220;5.308;2024-01-10T01:10:12;20.17;;;6.03;;
41480;SDS011;27217;51.220;5.308;2024-01-10T01:12:38;15.07;;;5.73;;
41480;SDS011;27217;51.220;5.308;2024-01-10T01:15:04;15.23;;;5.70;;
41480;SDS011;27217;51.220;5.308;2024-01-10T01:17:30;14.97;;;5.80;;
41480;SDS011;27217;51.220;5.308;2024-01-10T01:19:56;12.90;;;5.77;;
41480;SDS011;27217;51.220;5.308;2024-01-10T01:22:22;17.27;;;5.73;;
41480;SDS011;27217;51.220;5.308;2024-01-10T01:24:48;15.80;;;5.30;;
41480;SDS011;27217;51.220;5.308;2024-01-10T01:27:13;24.57;;;6.30;;
41480;SDS011;27217;51.220;5.308;2024-01-10T01:29:39;16.20;;;5.57;;
41480;SDS011;27217;51.220;5.308;2024-01-10T01:32:05;15.37;;;5.60;;
41480;SDS011;27217;51.220;5.308;2024-01-10T01:34:30;14.67;;;5.67;;
41480;SDS011;27217;51.220;5.308;2024-01-10T01:36:56;13.77;;;6.50;;
41480;SDS011;27217;51.220;5.308;2024-01-10T01:39:22;13.13;;;4.97;;
41480;SDS011;27217;51.220;5.308;2024-01-10T01:41:48;15.73;;;6.07;;
41480;SDS011;27217;51.220;5.308;2024-01-10T01:44:13;20.37;;;6.00;;
41480;SDS011;27217;51.220;5.308;2024-01-10T01:46:39;13.27;;;5.13;;
41480;SDS011;27217;51.220;5.308;2024-01-10T01:49:08;16.17;;;5.90;;
41480;SDS011;27217;51.220;5.308;2024-01-10T01:51:35;14.03;;;5.67;;
41480;SDS011;27217;51.220;5.308;2024-01-10T01:54:03;14.87;;;5.27;;
41480;SDS011;27217;51.220;5.308;2024-01-10T01:56:33;16.10;;;5.73;;
41480;SDS011;27217;51.220;5.308;2024-01-10T01:59:00;13.83;;;5.10;;
41480;SDS011;27217;51.220;5.308;2024-01-10T02:01:27;16.13;;;5.43;;
41480;SDS011;27217;51.220;5.308;2024-01-10T02:03:53;18.57;;;6.10;;
41480;SDS011;27217;51.220;5.308;2024-01-10T02:06:20;13.13;;;4.87;;
41480;SDS011;27217;51.220;5.308;2024-01-10T02:08:46;16.40;;;6.03;;
41480;SDS011;27217;51.220;5.308;2024-01-10T02:11:12;15.73;;;4.70;;
41480;SDS011;27217;51.220;5.308;2024-01-10T02:13:38;14.37;;;5.60;;
41480;SDS011;27217;51.220;5.308;2024-01-10T02:16:04;15.00;;;5.33;;
41480;SDS011;27217;51.220;5.308;2024-01-10T02:18:30;13.30;;;5.47;;
41480;SDS011;27217;51.220;5.308;2024-01-10T02:20:56;12.90;;;5.43;;
41480;SDS011;27217;51.220;5.308;2024-01-10T02:23:23;18.63;;;5.70;;
41480;SDS011;27217;51.220;5.308;2024-01-10T02:25:48;17.33;;;6.07;;
41480;SDS011;27217;51.220;5.308;2024-01-10T02:28:14;17.83;;;5.87;;
41480;SDS011;27217;51.220;5.308;2024-01-10T02:30:40;12.87;;;5.20;;
41480;SDS011;27217;51.220;5.308;2024-01-10T02:33:06;14.73;;;5.47;;
41480;SDS011;27217;51.220;5.308;2024-01-10T02:35:31;18.77;;;6.13;;
41480;SDS011;27217;51.220;5.308;2024-01-10T02:37:58;21.13;;;6.00;;
41480;SDS011;27217;51.220;5.308;2024-01-10T02:40:24;16.33;;;5.83;;
41480;SDS011;27217;51.220;5.308;2024-01-10T02:42:50;15.33;;;5.53;;
41480;SDS011;27217;51.220;5.308;2024-01-10T02:45:16;12.10;;;5.20;;
41480;SDS011;27217;51.220;5.308;2024-01-10T02:47:44;17.37;;;6.13;;
41480;SDS011;27217;51.220;5.308;2024-01-10T02:50:10;16.77;;;6.03;;
41480;SDS011;27217;51.220;5.308;2024-01-10T02:52:36;16.13;;;6.53;;
41480;SDS011;27217;51.220;5.308;2024-01-10T02:55:02;11.40;;;5.17;;
41480;SDS011;27217;51.220;5.308;2024-01-10T02:57:28;13.03;;;5.30;;
41480;SDS011;27217;51.220;5.308;2024-01-10T02:59:54;14.23;;;5.47;;
41480;SDS011;27217;51.220;5.308;2024-01-10T03:02:20;16.70;;;6.00;;
41480;SDS011;27217;51.220;5.308;2024-01-10T03:04:48;13.10;;;5.77;;
41480;SDS011;27217;51.220;5.308;2024-01-10T03:07:14;12.67;;;5.60;;
41480;SDS011;27217;51.220;5.308;2024-01-10T03:09:39;13.50;;;5.73;;
41480;SDS011;27217;51.220;5.308;2024-01-10T03:12:05;15.07;;;5.67;;
41480;SDS011;27217;51.220;5.308;2024-01-10T03:14:32;11.73;;;4.50;;
41480;SDS011;27217;51.220;5.308;2024-01-10T03:16:59;10.67;;;4.20;;
41480;SDS011;27217;51.220;5.308;2024-01-10T03:19:25;14.73;;;4.43;;
41480;SDS011;27217;51.220;5.308;2024-01-10T03:21:50;11.77;;;5.20;;
41480;SDS011;27217;51.220;5.308;2024-01-10T03:24:16;11.30;;;5.10;;
41480;SDS011;27217;51.220;5.308;2024-01-10T03:26:42;10.23;;;4.77;;
41480;SDS011;27217;51.220;5.308;2024-01-10T03:29:08;10.90;;;4.80;;
41480;SDS011;27217;51.220;5.308;2024-01-10T03:31:34;10.77;;;4.20;;
41480;SDS011;27217;51.220;5.308;2024-01-10T03:33:59;15.63;;;5.03;;
41480;SDS011;27217;51.220;5.308;2024-01-10T03:36:25;10.40;;;4.87;;
41480;SDS011;27217;51.220;5.308;2024-01-10T03:38:51;12.80;;;5.70;;
41480;SDS011;27217;51.220;5.308;2024-01-10T03:41:17;14.90;;;5.17;;
41480;SDS011;27217;51.220;5.308;2024-01-10T03:43:44;10.70;;;4.43;;
41480;SDS011;27217;51.220;5.308;2024-01-10T03:46:11;15.80;;;4.87;;
41480;SDS011;27217;51.220;5.308;2024-01-10T03:48:37;10.37;;;5.20;;
41480;SDS011;27217;51.220;5.308;2024-01-10T03:51:07;15.23;;;5.57;;
41480;SDS011;27217;51.220;5.308;2024-01-10T03:53:33;12.70;;;4.80;;
41480;SDS011;27217;51.220;5.308;2024-01-10T03:55:59;13.93;;;5.47;;
41480;SDS011;27217;51.220;5.308;2024-01-10T03:58:28;10.87;;;4.83;;
41480;SDS011;27217;51.220;5.308;2024-01-10T04:00:54;15.03;;;4.97;;
41480;SDS011;27217;51.220;5.308;2024-01-10T04:03:19;11.17;;;5.33;;
41480;SDS011;27217;51.220;5.308;2024-01-10T04:05:45;12.53;;;5.03;;
41480;SDS011;27217;51.220;5.308;2024-01-10T04:08:11;14.00;;;5.37;;
41480;SDS011;27217;51.220;5.308;2024-01-10T04:10:36;13.13;;;5.30;;
41480;SDS011;27217;51.220;5.308;2024-01-10T04:13:02;11.77;;;4.73;;
41480;SDS011;27217;51.220;5.308;2024-01-10T04:15:28;19.00;;;5.70;;
41480;SDS011;27217;51.220;5.308;2024-01-10T04:17:54;11.27;;;5.03;;
41480;SDS011;27217;51.220;5.308;2024-01-10T04:20:19;14.03;;;5.23;;
41480;SDS011;27217;51.220;5.308;2024-01-10T04:22:45;9.47;;;4.73;;
41480;SDS011;27217;51.220;5.308;2024-01-10T04:25:11;18.40;;;5.20;;
41480;SDS011;27217;51.220;5.308;2024-01-10T04:27:37;11.87;;;4.83;;
41480;SDS011;27217;51.220;5.308;2024-01-10T04:30:03;13.70;;;5.73;;
41480;SDS011;27217;51.220;5.308;2024-01-10T04:32:30;16.77;;;5.77;;
41480;SDS011;27217;51.220;5.308;2024-01-10T04:34:56;9.60;;;4.50;;
41480;SDS011;27217;51.220;5.308;2024-01-10T04:37:21;12.83;;;5.10;;
41480;SDS011;27217;51.220;5.308;2024-01-10T04:39:47;14.20;;;6.23;;
41480;SDS011;27217;51.220;5.308;2024-01-10T04:42:13;20.30;;;6.40;;
41480;SDS011;27217;51.220;5.308;2024-01-10T04:44:39;16.97;;;6.40;;
41480;SDS011;27217;51.220;5.308;2024-01-10T04:47:05;14.17;;;5.30;;
41480;SDS011;27217;51.220;5.308;2024-01-10T04:49:32;19.20;;;5.73;;
41480;SDS011;27217;51.220;5.308;2024-01-10T04:51:58;10.87;;;4.07;;
41480;SDS011;27217;51.220;5.308;2024-01-10T04:54:23;11.47;;;5.33;;
41480;SDS011;27217;51.220;5.308;2024-01-10T04:56:52;14.23;;;5.53;;
41480;SDS011;27217;51.220;5.308;2024-01-10T04:59:17;15.03;;;5.63;;
41480;SDS011;27217;51.220;5.308;2024-01-10T05:01:43;14.23;;;6.53;;
41480;SDS011;27217;51.220;5.308;2024-01-10T05:04:09;14.67;;;4.97;;
41480;SDS011;27217;51.220;5.308;2024-01-10T05:06:35;11.70;;;5.17;;
41480;SDS011;27217;51.220;5.308;2024-01-10T05:09:01;12.63;;;5.00;;
41480;SDS011;27217;51.220;5.308;2024-01-10T05:11:27;14.77;;;5.17;;
41480;SDS011;27217;51.220;5.308;2024-01-10T05:13:53;13.10;;;4.73;;
41480;SDS011;27217;51.220;5.308;2024-01-10T05:16:19;13.47;;;4.73;;
41480;SDS011;27217;51.220;5.308;2024-01-10T05:18:44;11.70;;;4.70;;
41480;SDS011;27217;51.220;5.308;2024-01-10T05:21:11;13.13;;;5.10;;
41480;SDS011;27217;51.220;5.308;2024-01-10T05:23:37;16.17;;;6.00;;
41480;SDS011;27217;51.220;5.308;2024-01-10T05:26:04;15.03;;;5.43;;
41480;SDS011;27217;51.220;5.308;2024-01-10T05:28:30;16.10;;;7.37;;
41480;SDS011;27217;51.220;5.308;2024-01-10T05:31:45;13.43;;;5.53;;
41480;SDS011;27217;51.220;5.308;2024-01-10T05:34:11;18.73;;;6.30;;
41480;SDS011;27217;51.220;5.308;2024-01-10T05:36:37;12.17;;;5.30;;
41480;SDS011;27217;51.220;5.308;2024-01-10T05:39:03;18.13;;;6.27;;
41480;SDS011;27217;51.220;5.308;2024-01-10T05:41:29;14.37;;;5.60;;
41480;SDS011;27217;51.220;5.308;2024-01-10T05:43:54;16.93;;;5.07;;
41480;SDS011;27217;51.220;5.308;2024-01-10T05:46:20;11.37;;;4.60;;
41480;SDS011;27217;51.220;5.308;2024-01-10T05:48:46;12.70;;;5.07;;
41480;SDS011;27217;51.220;5.308;2024-01-10T05:51:11;14.33;;;5.33;;
41480;SDS011;27217;51.220;5.308;2024-01-10T05:53:37;17.73;;;5.47;;
41480;SDS011;27217;51.220;5.308;2024-01-10T05:56:05;15.73;;;5.60;;
41480;SDS011;27217;51.220;5.308;2024-01-10T05:58:31;13.87;;;5.63;;
41480;SDS011;27217;51.220;5.308;2024-01-10T06:00:57;17.53;;;4.80;;
41480;SDS011;27217;51.220;5.308;2024-01-10T06:03:22;13.03;;;4.70;;
41480;SDS011;27217;51.220;5.308;2024-01-10T06:05:49;11.93;;;5.07;;
41480;SDS011;27217;51.220;5.308;2024-01-10T06:08:15;15.27;;;5.33;;
41480;SDS011;27217;51.220;5.308;2024-01-10T06:10:41;10.27;;;4.70;;
41480;SDS011;27217;51.220;5.308;2024-01-10T06:13:07;15.60;;;4.70;;
41480;SDS011;27217;51.220;5.308;2024-01-10T06:15:33;17.00;;;5.97;;
41480;SDS011;27217;51.220;5.308;2024-01-10T06:17:59;16.53;;;5.63;;
41480;SDS011;27217;51.220;5.308;2024-01-10T06:20:24;13.87;;;5.63;;
41480;SDS011;27217;51.220;5.308;2024-01-10T06:22:50;15.80;;;6.07;;
41480;SDS011;27217;51.220;5.308;2024-01-10T06:25:16;14.00;;;5.90;;
41480;SDS011;27217;51.220;5.308;2024-01-10T06:27:42;18.20;;;5.83;;
41480;SDS011;27217;51.220;5.308;2024-01-10T06:30:08;14.27;;;5.97;;
41480;SDS011;27217;51.220;5.308;2024-01-10T06:32:34;12.40;;;5.77;;
41480;SDS011;27217;51.220;5.308;2024-01-10T06:35:00;13.17;;;5.53;;
41480;SDS011;27217;51.220;5.308;2024-01-10T06:37:27;15.97;;;6.37;;
41480;SDS011;27217;51.220;5.308;2024-01-10T06:39:53;16.00;;;6.27;;
41480;SDS011;27217;51.220;5.308;2024-01-10T06:42:19;14.70;;;6.33;;
41480;SDS011;27217;51.220;5.308;2024-01-10T06:44:45;19.90;;;6.63;;
41480;SDS011;27217;51.220;5.308;2024-01-10T06:47:11;16.10;;;5.83;;
41480;SDS011;27217;51.220;5.308;2024-01-10T06:49:36;15.07;;;6.20;;
41480;SDS011;27217;51.220;5.308;2024-01-10T06:52:03;12.57;;;5.90;;
41480;SDS011;27217;51.220;5.308;2024-01-10T06:54:32;12.50;;;5.57;;
41480;SDS011;27217;51.220;5.308;2024-01-10T06:56:57;15.63;;;6.90;;
41480;SDS011;27217;51.220;5.308;2024-01-10T06:59:23;20.47;;;6.63;;
41480;SDS011;27217;51.220;5.308;2024-01-10T07:01:52;31.77;;;9.27;;
41480;SDS011;27217;51.220;5.308;2024-01-10T07:04:18;13.70;;;6.00;;
41480;SDS011;27217;51.220;5.308;2024-01-10T07:06:47;15.57;;;5.93;;
41480;SDS011;27217;51.220;5.308;2024-01-10T07:09:13;23.80;;;7.13;;
41480;SDS011;27217;51.220;5.308;2024-01-10T07:11:44;15.52;;;4.97;;
41480;SDS011;27217;51.220;5.308;2024-01-10T07:14:12;18.57;;;6.77;;
41480;SDS011;27217;51.220;5.308;2024-01-10T07:16:39;15.00;;;6.53;;
41480;SDS011;27217;51.220;5.308;2024-01-10T07:19:07;16.70;;;6.00;;
41480;SDS011;27217;51.220;5.308;2024-01-10T07:21:34;16.93;;;6.73;;
41480;SDS011;27217;51.220;5.308;2024-01-10T07:24:00;18.83;;;6.17;;
41480;SDS011;27217;51.220;5.308;2024-01-10T07:26:26;19.00;;;6.87;;
41480;SDS011;27217;51.220;5.308;2024-01-10T07:28:52;15.20;;;5.70;;
41480;SDS011;27217;51.220;5.308;2024-01-10T07:31:18;19.47;;;6.63;;
41480;SDS011;27217;51.220;5.308;2024-01-10T07:33:44;20.37;;;6.57;;
41480;SDS011;27217;51.220;5.308;2024-01-10T07:36:10;20.77;;;6.70;;
41480;SDS011;27217;51.220;5.308;2024-01-10T07:38:35;16.63;;;6.77;;
41480;SDS011;27217;51.220;5.308;2024-01-10T07:41:03;15.73;;;5.80;;
41480;SDS011;27217;51.220;5.308;2024-01-10T07:43:28;15.83;;;6.30;;
41480;SDS011;27217;51.220;5.308;2024-01-10T07:45:54;24.90;;;6.73;;
41480;SDS011;27217;51.220;5.308;2024-01-10T07:48:20;24.53;;;7.27;;
41480;SDS011;27217;51.220;5.308;2024-01-10T07:50:46;16.33;;;6.13;;
41480;SDS011;27217;51.220;5.308;2024-01-10T07:53:11;17.53;;;6.27;;
41480;SDS011;27217;51.220;5.308;2024-01-10T07:55:38;17.20;;;6.00;;
41480;SDS011;27217;51.220;5.308;2024-01-10T07:58:04;16.50;;;7.00;;
41480;SDS011;27217;51.220;5.308;2024-01-10T08:00:30;17.23;;;6.60;;
41480;SDS011;27217;51.220;5.308;2024-01-10T08:02:56;22.37;;;7.30;;
41480;SDS011;27217;51.220;5.308;2024-01-10T08:05:23;17.27;;;7.10;;
41480;SDS011;27217;51.220;5.308;2024-01-10T08:07:49;21.30;;;6.90;;
41480;SDS011;27217;51.220;5.308;2024-01-10T08:10:15;22.17;;;7.83;;
41480;SDS011;27217;51.220;5.308;2024-01-10T08:12:43;17.93;;;6.70;;
41480;SDS011;27217;51.220;5.308;2024-01-10T08:15:10;29.13;;;7.43;;
41480;SDS011;27217;51.220;5.308;2024-01-10T08:17:36;25.03;;;7.00;;
41480;SDS011;27217;51.220;5.308;2024-01-10T08:20:06;17.00;;;6.87;;
41480;SDS011;27217;51.220;5.308;2024-01-10T08:22:33;27.13;;;8.27;;
41480;SDS011;27217;51.220;5.308;2024-01-10T08:24:59;23.00;;;7.27;;
41480;SDS011;27217;51.220;5.308;2024-01-10T08:27:25;18.00;;;6.70;;
41480;SDS011;27217;51.220;5.308;2024-01-10T08:29:50;19.93;;;7.67;;
41480;SDS011;27217;51.220;5.308;2024-01-10T08:32:16;22.37;;;7.90;;
41480;SDS011;27217;51.220;5.308;2024-01-10T08:34:44;18.33;;;6.67;;
41480;SDS011;27217;51.220;5.308;2024-01-10T08:37:10;19.67;;;6.80;;
41480;SDS011;27217;51.220;5.308;2024-01-10T08:39:35;19.50;;;8.17;;
41480;SDS011;27217;51.220;5.308;2024-01-10T08:42:01;24.43;;;8.03;;
41480;SDS011;27217;51.220;5.308;2024-01-10T08:44:27;20.80;;;7.70;;
41480;SDS011;27217;51.220;5.308;2024-01-10T08:46:54;21.10;;;7.93;;
41480;SDS011;27217;51.220;5.308;2024-01-10T08:49:21;24.47;;;7.57;;
41480;SDS011;27217;51.220;5.308;2024-01-10T08:51:49;16.83;;;7.50;;
41480;SDS011;27217;51.220;5.308;2024-01-10T08:54:18;17.40;;;6.57;;
41480;SDS011;27217;51.220;5.308;2024-01-10T08:56:45;19.17;;;7.33;;
41480;SDS011;27217;51.220;5.308;2024-01-10T08:59:11;19.17;;;7.03;;
41480;SDS011;27217;51.220;5.308;2024-01-10T09:01:38;16.43;;;7.03;;
41480;SDS011;27217;51.220;5.308;2024-01-10T09:04:04;23.27;;;8.77;;
41480;SDS011;27217;51.220;5.308;2024-01-10T09:06:33;20.73;;;7.23;;
41480;SDS011;27217;51.220;5.308;2024-01-10T09:09:02;25.67;;;8.40;;
41480;SDS011;27217;51.220;5.308;2024-01-10T09:11:28;22.47;;;7.23;;
41480;SDS011;27217;51.220;5.308;2024-01-10T09:13:54;22.43;;;8.03;;
41480;SDS011;27217;51.220;5.308;2024-01-10T09:16:19;22.20;;;7.97;;
41480;SDS011;27217;51.220;5.308;2024-01-10T09:18:45;24.57;;;8.47;;
41480;SDS011;27217;51.220;5.308;2024-01-10T09:21:11;21.03;;;7.83;;
41480;SDS011;27217;51.220;5.308;2024-01-10T09:23:37;18.67;;;7.53;;
41480;SDS011;27217;51.220;5.308;2024-01-10T09:26:03;48.63;;;7.80;;
41480;SDS011;27217;51.220;5.308;2024-01-10T09:28:29;21.07;;;7.00;;
41480;SDS011;27217;51.220;5.308;2024-01-10T09:30:54;24.23;;;8.50;;
41480;SDS011;27217;51.220;5.308;2024-01-10T09:33:20;26.57;;;8.83;;
41480;SDS011;27217;51.220;5.308;2024-01-10T09:35:47;18.70;;;7.37;;
41480;SDS011;27217;51.220;5.308;2024-01-10T09:38:14;24.63;;;8.60;;
41480;SDS011;27217;51.220;5.308;2024-01-10T09:40:39;27.83;;;8.30;;
41480;SDS011;27217;51.220;5.308;2024-01-10T09:43:05;19.20;;;7.53;;
41480;SDS011;27217;51.220;5.308;2024-01-10T09:45:34;23.03;;;8.17;;
41480;SDS011;27217;51.220;5.308;2024-01-10T09:48:01;24.73;;;8.37;;
41480;SDS011;27217;51.220;5.308;2024-01-10T09:50:28;31.23;;;8.93;;
41480;SDS011;27217;51.220;5.308;2024-01-10T09:52:56;23.07;;;8.50;;
41480;SDS011;27217;51.220;5.308;2024-01-10T09:55:34;24.73;;;7.73;;
41480;SDS011;27217;51.220;5.308;2024-01-10T09:58:04;23.60;;;7.97;;
41480;SDS011;27217;51.220;5.308;2024-01-10T10:00:31;21.40;;;9.07;;
41480;SDS011;27217;51.220;5.308;2024-01-10T10:03:04;21.03;;;7.60;;
41480;SDS011;27217;51.220;5.308;2024-01-10T10:05:35;21.00;;;8.00;;
41480;SDS011;27217;51.220;5.308;2024-01-10T10:08:02;19.93;;;7.30;;
41480;SDS011;27217;51.220;5.308;2024-01-10T10:10:31;21.33;;;8.20;;
41480;SDS011;27217;51.220;5.308;2024-01-10T10:12:57;23.90;;;8.43;;
41480;SDS011;27217;51.220;5.308;2024-01-10T10:15:24;19.27;;;7.73;;
41480;SDS011;27217;51.220;5.308;2024-01-10T10:17:53;21.50;;;8.10;;
41480;SDS011;27217;51.220;5.308;2024-01-10T10:25:31;17.13;;;6.90;;
41480;SDS011;27217;51.220;5.308;2024-01-10T10:28:01;20.47;;;8.17;;
41480;SDS011;27217;51.220;5.308;2024-01-10T10:30:28;23.50;;;8.33;;
41480;SDS011;27217;51.220;5.308;2024-01-10T10:32:55;27.30;;;8.37;;
41480;SDS011;27217;51.220;5.308;2024-01-10T10:35:21;25.43;;;7.83;;
41480;SDS011;27217;51.220;5.308;2024-01-10T10:37:48;22.93;;;8.63;;
41480;SDS011;27217;51.220;5.308;2024-01-10T10:40:15;18.80;;;8.40;;
41480;SDS011;27217;51.220;5.308;2024-01-10T10:42:48;19.07;;;8.20;;
41480;SDS011;27217;51.220;5.308;2024-01-10T10:45:17;22.37;;;8.53;;
41480;SDS011;27217;51.220;5.308;2024-01-10T10:47:45;25.63;;;8.00;;
41480;SDS011;27217;51.220;5.308;2024-01-10T10:50:19;37.03;;;9.10;;
41480;SDS011;27217;51.220;5.308;2024-01-10T10:52:50;28.40;;;9.40;;
41480;SDS011;27217;51.220;5.308;2024-01-10T10:55:18;28.97;;;9.33;;
41480;SDS011;27217;51.220;5.308;2024-01-10T10:57:48;22.10;;;8.50;;
41480;SDS011;27217;51.220;5.308;2024-01-10T11:00:14;22.23;;;6.87;;
41480;SDS011;27217;51.220;5.308;2024-01-10T11:02:42;21.27;;;8.10;;
41480;SDS011;27217;51.220;5.308;2024-01-10T11:05:09;37.10;;;9.80;;
41480;SDS011;27217;51.220;5.308;2024-01-10T11:07:36;20.90;;;8.50;;
41480;SDS011;27217;51.220;5.308;2024-01-10T11:10:08;34.15;;;9.57;;
41480;SDS011;27217;51.220;5.308;2024-01-10T11:21:19;21.85;;;8.27;;
41480;SDS011;27217;51.220;5.308;2024-01-10T11:23:56;22.45;;;9.05;;
41480;SDS011;27217;51.220;5.308;2024-01-10T11:26:24;25.65;;;8.90;;
41480;SDS011;27217;51.220;5.308;2024-01-10T11:28:51;20.45;;;9.00;;
41480;SDS011;27217;51.220;5.308;2024-01-10T11:31:26;22.60;;;9.60;;
41480;SDS011;27217;51.220;5.308;2024-01-10T11:33:57;19.80;;;8.73;;
41480;SDS011;27217;51.220;5.308;2024-01-10T11:36:25;22.60;;;8.73;;
41480;SDS011;27217;51.220;5.308;2024-01-10T11:46:34;22.17;;;9.63;;
41480;SDS011;27217;51.220;5.308;2024-01-10T11:49:10;34.35;;;9.43;;
41480;SDS011;27217;51.220;5.308;2024-01-10T11:51:43;29.42;;;9.93;;
41480;SDS011;27217;51.220;5.308;2024-01-10T11:54:10;23.98;;;9.15;;
41480;SDS011;27217;51.220;5.308;2024-01-10T11:56:40;25.30;;;10.02;;
41480;SDS011;27217;51.220;5.308;2024-01-10T11:59:07;20.45;;;8.90;;
41480;SDS011;27217;51.220;5.308;2024-01-10T12:01:38;25.52;;;8.77;;
41480;SDS011;27217;51.220;5.308;2024-01-10T12:04:04;20.35;;;9.50;;
41480;SDS011;27217;51.220;5.308;2024-01-10T12:06:31;28.65;;;9.73;;
41480;SDS011;27217;51.220;5.308;2024-01-10T12:08:57;19.15;;;9.25;;
41480;SDS011;27217;51.220;5.308;2024-01-10T12:11:24;19.05;;;8.10;;
41480;SDS011;27217;51.220;5.308;2024-01-10T12:13:50;23.17;;;9.45;;
41480;SDS011;27217;51.220;5.308;2024-01-10T12:16:16;20.10;;;8.90;;
41480;SDS011;27217;51.220;5.308;2024-01-10T12:18:43;25.65;;;9.40;;
41480;SDS011;27217;51.220;5.308;2024-01-10T12:21:09;21.75;;;8.93;;
41480;SDS011;27217;51.220;5.308;2024-01-10T12:23:38;24.55;;;9.25;;
41480;SDS011;27217;51.220;5.308;2024-01-10T12:26:05;20.08;;;8.80;;
41480;SDS011;27217;51.220;5.308;2024-01-10T12:28:35;20.00;;;9.40;;
41480;SDS011;27217;51.220;5.308;2024-01-10T12:31:01;22.10;;;9.98;;
41480;SDS011;27217;51.220;5.308;2024-01-10T12:33:28;19.33;;;8.27;;
41480;SDS011;27217;51.220;5.308;2024-01-10T12:36:03;21.70;;;9.57;;
41480;SDS011;27217;51.220;5.308;2024-01-10T12:38:34;20.85;;;8.95;;
41480;SDS011;27217;51.220;5.308;2024-01-10T12:41:01;20.60;;;9.25;;
41480;SDS011;27217;51.220;5.308;2024-01-10T12:43:28;23.15;;;9.05;;
41480;SDS011;27217;51.220;5.308;2024-01-10T12:48:41;23.08;;;9.07;;
41480;SDS011;27217;51.220;5.308;2024-01-10T12:51:07;21.55;;;9.13;;
41480;SDS011;27217;51.220;5.308;2024-01-10T12:53:37;20.75;;;9.57;;
41480;SDS011;27217;51.220;5.308;2024-01-10T12:56:08;25.27;;;9.70;;
41480;SDS011;27217;51.220;5.308;2024-01-10T12:58:39;21.08;;;9.70;;
41480;SDS011;27217;51.220;5.308;2024-01-10T13:01:10;25.52;;;9.55;;
41480;SDS011;27217;51.220;5.308;2024-01-10T13:03:37;22.25;;;9.45;;
41480;SDS011;27217;51.220;5.308;2024-01-10T13:06:03;20.70;;;9.55;;
41480;SDS011;27217;51.220;5.308;2024-01-10T13:08:30;22.70;;;9.20;;
41480;SDS011;27217;51.220;5.308;2024-01-10T13:10:57;20.48;;;9.85;;
41480;SDS011;27217;51.220;5.308;2024-01-10T13:13:24;19.88;;;9.43;;
41480;SDS011;27217;51.220;5.308;2024-01-10T13:15:50;20.13;;;8.70;;
41480;SDS011;27217;51.220;5.308;2024-01-10T13:18:16;22.63;;;8.35;;
41480;SDS011;27217;51.220;5.308;2024-01-10T13:20:43;19.00;;;9.00;;
41480;SDS011;27217;51.220;5.308;2024-01-10T13:23:10;20.98;;;9.43;;
41480;SDS011;27217;51.220;5.308;2024-01-10T13:25:35;20.63;;;10.05;;
41480;SDS011;27217;51.220;5.308;2024-01-10T13:28:02;20.08;;;9.15;;
41480;SDS011;27217;51.220;5.308;2024-01-10T13:30:29;23.58;;;10.00;;
41480;SDS011;27217;51.220;5.308;2024-01-10T13:32:55;20.08;;;10.15;;
41480;SDS011;27217;51.220;5.308;2024-01-10T13:35:23;21.98;;;9.38;;
41480;SDS011;27217;51.220;5.308;2024-01-10T13:37:49;19.52;;;9.40;;
41480;SDS011;27217;51.220;5.308;2024-01-10T13:40:15;21.67;;;9.77;;
41480;SDS011;27217;51.220;5.308;2024-01-10T13:42:42;24.23;;;9.48;;
41480;SDS011;27217;51.220;5.308;2024-01-10T13:45:08;21.63;;;10.15;;
41480;SDS011;27217;51.220;5.308;2024-01-10T13:47:38;24.35;;;10.38;;
41480;SDS011;27217;51.220;5.308;2024-01-10T13:50:07;22.52;;;10.35;;
41480;SDS011;27217;51.220;5.308;2024-01-10T13:52:34;21.48;;;10.25;;
41480;SDS011;27217;51.220;5.308;2024-01-10T13:55:01;24.55;;;9.77;;
41480;SDS011;27217;51.220;5.308;2024-01-10T13:57:29;21.98;;;9.50;;
41480;SDS011;27217;51.220;5.308;2024-01-10T13:59:55;22.88;;;10.80;;
41480;SDS011;27217;51.220;5.308;2024-01-10T14:02:22;24.08;;;10.27;;
41480;SDS011;27217;51.220;5.308;2024-01-10T14:04:47;24.05;;;9.63;;
41480;SDS011;27217;51.220;5.308;2024-01-10T14:07:13;27.27;;;10.80;;
41480;SDS011;27217;51.220;5.308;2024-01-10T14:09:39;24.40;;;10.35;;
41480;SDS011;27217;51.220;5.308;2024-01-10T14:12:05;21.15;;;9.82;;
41480;SDS011;27217;51.220;5.308;2024-01-10T14:14:31;24.33;;;9.68;;
41480;SDS011;27217;51.220;5.308;2024-01-10T14:16:57;32.22;;;10.68;;
41480;SDS011;27217;51.220;5.308;2024-01-10T14:19:23;29.23;;;10.98;;
41480;SDS011;27217;51.220;5.308;2024-01-10T14:21:48;27.15;;;10.55;;
41480;SDS011;27217;51.220;5.308;2024-01-10T14:24:14;30.67;;;12.18;;
41480;SDS011;27217;51.220;5.308;2024-01-10T14:26:41;27.98;;;11.32;;
41480;SDS011;27217;51.220;5.308;2024-01-10T14:29:06;26.95;;;10.63;;
41480;SDS011;27217;51.220;5.308;2024-01-10T14:31:32;33.35;;;9.90;;
41480;SDS011;27217;51.220;5.308;2024-01-10T14:33:58;27.83;;;9.98;;
41480;SDS011;27217;51.220;5.308;2024-01-10T14:36:25;25.58;;;11.00;;
41480;SDS011;27217;51.220;5.308;2024-01-10T14:38:50;23.20;;;10.35;;
41480;SDS011;27217;51.220;5.308;2024-01-10T14:41:16;22.13;;;10.18;;
41480;SDS011;27217;51.220;5.308;2024-01-10T14:43:42;27.38;;;10.48;;
41480;SDS011;27217;51.220;5.308;2024-01-10T14:46:08;27.38;;;10.80;;
41480;SDS011;27217;51.220;5.308;2024-01-10T14:48:35;24.67;;;10.35;;
41480;SDS011;27217;51.220;5.308;2024-01-10T14:51:01;27.33;;;10.98;;
41480;SDS011;27217;51.220;5.308;2024-01-10T14:53:29;28.00;;;11.80;;
41480;SDS011;27217;51.220;5.308;2024-01-10T14:55:55;28.90;;;11.20;;
41480;SDS011;27217;51.220;5.308;2024-01-10T14:58:21;21.70;;;9.77;;